createdAt,value
2022-10-09T00:02:26.371Z,98101.09
2022-10-09T00:07:29.940Z,98074.78
2022-10-09T00:12:33.630Z,98111.28
2022-10-09T00:17:37.094Z,98039.38
2022-10-09T00:22:40.978Z,98047.50
2022-10-09T00:27:44.412Z,98111.13
2022-10-09T00:32:48.296Z,98110.84
2022-10-09T00:37:52.186Z,98087.59
2022-10-09T00:42:59.461Z,98106.19
2022-10-09T00:48:07.785Z,98096.19
2022-10-09T00:53:16.874Z,98087.88
2022-10-09T00:58:21.174Z,98079.34
2022-10-09T01:03:24.670Z,98087.34
2022-10-09T01:08:56.007Z,98088.59
2022-10-09T01:14:20.454Z,98058.22
2022-10-09T01:19:42.906Z,98061.91
2022-10-09T01:24:55.945Z,98038.03
2022-10-09T01:30:13.433Z,98012.69
2022-10-09T01:35:18.623Z,98015.28
2022-10-09T01:40:23.495Z,98032.88
2022-10-09T01:45:41.001Z,98027.25
2022-10-09T01:50:47.107Z,98032.03
2022-10-09T01:56:21.982Z,98030.75
2022-10-09T02:01:28.179Z,97966.13
2022-10-09T02:06:32.399Z,97819.22
2022-10-09T02:11:37.516Z,98039.75
2022-10-09T02:16:45.586Z,98000.97
2022-10-09T02:22:01.787Z,98040.25
2022-10-09T02:27:05.843Z,97955.69
2022-10-09T02:32:09.743Z,97856.72
2022-10-09T02:37:14.195Z,98038.25
2022-10-09T02:42:18.063Z,97958.78
2022-10-09T02:47:21.791Z,97757.72
2022-10-09T02:52:27.375Z,97910.25
2022-10-09T02:57:31.230Z,98026.34
2022-10-09T03:02:34.977Z,97796.91
2022-10-09T03:07:38.664Z,97964.84
2022-10-09T03:12:42.393Z,97933.38
2022-10-09T03:17:45.895Z,98006.28
2022-10-09T03:22:49.616Z,98045.59
2022-10-09T03:33:37.936Z,97976.84
2022-10-09T03:39:03.577Z,98050.75
2022-10-09T03:44:07.402Z,98046.66
2022-10-09T03:49:11.215Z,97792.31
2022-10-09T03:54:14.962Z,98021.31
2022-10-09T03:59:20.298Z,97771.06
2022-10-09T04:04:29.119Z,97986.19
2022-10-09T04:09:32.707Z,97951.97
2022-10-09T04:14:37.120Z,97901.84
2022-10-09T04:19:41.109Z,98037.13
2022-10-09T04:25:17.166Z,98052.47
2022-10-09T04:30:21.042Z,98002.06
2022-10-09T04:35:24.769Z,97902.91
2022-10-09T04:40:28.939Z,97978.44
2022-10-09T04:45:32.686Z,98054.91
2022-10-09T04:50:39.716Z,97908.84
2022-10-09T04:55:44.706Z,98070.78
2022-10-09T05:00:48.960Z,98077.00
2022-10-09T05:05:52.548Z,97987.03
2022-10-09T05:11:03.794Z,98074.31
2022-10-09T05:16:12.164Z,97962.00
2022-10-09T05:21:16.759Z,98104.63
2022-10-09T05:26:22.028Z,98102.91
2022-10-09T05:31:29.314Z,98110.06
2022-10-09T05:36:33.182Z,98144.88
2022-10-09T05:41:37.136Z,97983.38
2022-10-09T05:46:40.717Z,98025.59
2022-10-09T05:51:50.706Z,98124.38
2022-10-09T05:56:56.501Z,98026.38
2022-10-09T06:02:00.313Z,97997.13
2022-10-09T06:07:04.058Z,98146.78
2022-10-09T06:12:07.786Z,97975.88
2022-10-09T06:17:11.304Z,98075.28
2022-10-09T06:22:24.862Z,98140.25
2022-10-09T06:27:29.065Z,98141.38
2022-10-09T06:32:33.943Z,98161.84
2022-10-09T06:37:41.443Z,98168.63
2022-10-09T06:42:45.073Z,98053.56
2022-10-09T06:47:48.695Z,98133.34
2022-10-09T06:52:52.334Z,98112.53
2022-10-09T06:57:55.993Z,98142.72
2022-10-09T07:02:59.948Z,98212.28
2022-10-09T07:08:03.647Z,98213.41
2022-10-09T07:13:07.314Z,98149.13
2022-10-09T07:18:10.988Z,98158.84
2022-10-09T07:23:18.974Z,98098.59
2022-10-09T07:28:22.641Z,98210.19
2022-10-09T07:33:26.232Z,98227.38
2022-10-09T07:38:39.949Z,98181.81
2022-10-09T07:43:44.393Z,98122.63
2022-10-09T07:48:48.562Z,98222.13
2022-10-09T07:53:52.549Z,98231.69
2022-10-09T07:58:59.466Z,98216.25
2022-10-09T08:04:04.378Z,98207.84
2022-10-09T08:09:10.085Z,98200.13
2022-10-09T08:14:18.986Z,98216.38
2022-10-09T08:19:23.073Z,98257.88
2022-10-09T08:24:27.198Z,98242.75
2022-10-09T08:29:30.617Z,98061.78
2022-10-09T08:34:34.273Z,98223.91
2022-10-09T08:39:37.239Z,98259.59
2022-10-09T08:44:43.449Z,98255.00
2022-10-09T08:49:58.215Z,98262.28
2022-10-09T08:55:09.204Z,98272.50
2022-10-09T09:00:23.476Z,98267.78
2022-10-09T09:05:36.213Z,98291.75
2022-10-09T09:10:49.536Z,98276.84
2022-10-09T09:15:59.546Z,98286.78
2022-10-09T09:21:17.221Z,98284.84
2022-10-09T09:26:22.608Z,98280.72
2022-10-09T09:31:38.188Z,98258.81
2022-10-09T09:37:00.154Z,98293.78
2022-10-09T09:42:14.366Z,98284.66
2022-10-09T09:47:24.672Z,98271.50
2022-10-09T09:52:31.499Z,98266.50
2022-10-09T09:57:40.886Z,98229.94
2022-10-09T10:02:47.178Z,98280.38
2022-10-09T10:07:53.492Z,98273.97
2022-10-09T10:12:59.550Z,98279.34
2022-10-09T10:18:04.568Z,98273.19
2022-10-09T10:24:04.409Z,98275.16
2022-10-09T10:29:10.980Z,98259.25
2022-10-09T10:35:06.967Z,98235.19
2022-10-09T10:40:33.161Z,98257.00
2022-10-09T10:45:44.740Z,98274.19
2022-10-09T10:50:57.150Z,98265.84
2022-10-09T10:56:07.031Z,98242.38
2022-10-09T11:01:31.437Z,98240.22
2022-10-09T11:06:42.788Z,98177.44
2022-10-09T11:11:48.385Z,98251.06
2022-10-09T11:17:03.175Z,98248.28
2022-10-09T11:22:55.043Z,98250.81
2022-10-09T11:28:23.001Z,98229.69
2022-10-09T11:33:42.417Z,98233.72
2022-10-09T11:38:49.878Z,98219.03
2022-10-09T11:44:09.211Z,98233.53
2022-10-09T11:49:40.427Z,98218.34
2022-10-09T11:54:43.357Z,98192.66
2022-10-09T11:59:46.297Z,98179.34
2022-10-09T12:04:56.270Z,98138.41
2022-10-09T12:10:09.996Z,98166.09
2022-10-09T12:15:28.313Z,98193.53
2022-10-09T12:20:31.577Z,98187.91
2022-10-09T12:25:44.889Z,98152.81
2022-10-09T12:30:51.285Z,98089.31
2022-10-09T12:36:14.285Z,98192.28
2022-10-09T12:41:31.052Z,98190.34
2022-10-09T12:46:40.128Z,98187.16
2022-10-09T12:51:43.059Z,98186.19
2022-10-09T12:56:48.032Z,98076.44
2022-10-09T13:01:56.731Z,98076.56
2022-10-09T13:07:06.791Z,98180.72
2022-10-09T13:12:24.537Z,98171.16
2022-10-09T13:17:40.130Z,98166.28
2022-10-09T13:22:57.168Z,98107.94
2022-10-09T13:28:00.173Z,98168.44
2022-10-09T13:33:04.554Z,98083.94
2022-10-09T13:38:07.535Z,98120.63
2022-10-09T13:43:18.636Z,98007.47
2022-10-09T13:48:22.020Z,98156.28
2022-10-09T13:53:24.957Z,98075.69
2022-10-09T13:58:28.116Z,98109.16
2022-10-09T14:03:30.875Z,97882.50
2022-10-09T14:08:33.775Z,98109.16
2022-10-09T14:13:46.682Z,97991.25
2022-10-09T14:18:49.348Z,98099.09
2022-10-09T14:24:00.553Z,98073.31
2022-10-09T14:29:04.666Z,98144.25
2022-10-09T14:34:07.970Z,98112.31
2022-10-09T14:39:11.166Z,97813.28
2022-10-09T14:44:14.381Z,98118.16
2022-10-09T14:49:17.417Z,98137.47
2022-10-09T14:54:20.272Z,98085.38
2022-10-09T14:59:23.043Z,98084.38
2022-10-09T15:04:27.167Z,98119.91
2022-10-09T15:09:29.934Z,98123.59
2022-10-09T15:14:32.940Z,98108.97
2022-10-09T15:19:35.704Z,98015.72
2022-10-09T15:24:38.669Z,97999.75
2022-10-09T15:29:41.730Z,97893.56
2022-10-09T15:34:44.399Z,98100.50
2022-10-09T15:39:47.271Z,98036.59
2022-10-09T15:44:49.943Z,97903.88
2022-10-09T15:49:53.542Z,98001.81
2022-10-09T15:54:56.251Z,98053.56
2022-10-09T16:00:10.805Z,98081.75
2022-10-09T16:05:13.579Z,98070.22
2022-10-09T16:10:16.368Z,98109.47
2022-10-09T16:15:19.130Z,98079.78
2022-10-09T16:20:22.165Z,98047.22
2022-10-09T16:25:25.055Z,98093.25
2022-10-09T16:30:29.783Z,98003.09
2022-10-09T16:35:32.467Z,98029.94
2022-10-09T16:41:00.755Z,98110.13
2022-10-09T16:46:12.421Z,98108.06
2022-10-09T16:51:18.725Z,98036.63
2022-10-09T16:56:24.701Z,98081.72
2022-10-09T17:01:28.771Z,98092.97
2022-10-09T17:06:44.955Z,98100.53
2022-10-09T17:11:48.490Z,98102.88
2022-10-09T17:16:51.374Z,98056.34
2022-10-09T17:21:54.989Z,97918.28
2022-10-09T17:26:57.993Z,97956.84
2022-10-09T17:32:00.750Z,98036.75
2022-10-09T17:37:03.660Z,98119.91
2022-10-09T17:42:06.573Z,97939.75
2022-10-09T17:47:09.450Z,98014.53
2022-10-09T17:52:12.255Z,98111.28
2022-10-09T17:57:15.182Z,98135.38
2022-10-09T18:02:18.310Z,98062.69
2022-10-09T18:07:21.077Z,97851.38
2022-10-09T18:12:23.903Z,98017.00
2022-10-09T18:17:31.054Z,98043.66
2022-10-09T18:22:36.820Z,98144.81
2022-10-09T18:27:40.148Z,98099.81
2022-10-09T18:39:42.210Z,98111.00
2022-10-09T18:44:45.347Z,98107.94
2022-10-09T18:49:53.386Z,97951.72
2022-10-09T18:54:57.173Z,98127.69
2022-10-09T19:00:01.839Z,98096.66
2022-10-09T19:05:04.874Z,98133.72
2022-10-09T19:10:08.796Z,98133.16
2022-10-09T19:15:12.433Z,98135.22
2022-10-09T19:20:15.573Z,98091.50
2022-10-09T19:25:26.472Z,98117.09
2022-10-09T19:30:33.405Z,98068.38
2022-10-09T19:42:33.251Z,98123.75
2022-10-09T19:47:36.204Z,98018.09
2022-10-09T19:52:49.712Z,98082.44
2022-10-09T19:57:53.840Z,98120.84
2022-10-09T20:02:57.044Z,98090.25
2022-10-09T20:08:01.286Z,98130.59
2022-10-09T20:13:06.495Z,98095.47
2022-10-09T20:18:09.251Z,98120.59
2022-10-09T20:23:11.985Z,98028.59
2022-10-09T20:28:16.784Z,98123.59
2022-10-09T20:33:19.582Z,98091.75
2022-10-09T20:38:25.812Z,98121.75
2022-10-09T20:43:28.760Z,98078.31
2022-10-09T20:48:31.466Z,98131.78
2022-10-09T21:00:30.167Z,98122.16
2022-10-09T21:05:33.059Z,98111.41
2022-10-09T21:10:36.611Z,98051.78
2022-10-09T21:22:27.057Z,98098.44
2022-10-09T21:27:29.910Z,98117.34
2022-10-09T21:32:34.946Z,98137.06
2022-10-09T21:37:38.242Z,97938.81
2022-10-09T21:42:41.026Z,98148.97
2022-10-09T21:47:43.921Z,98098.00
2022-10-09T21:52:49.250Z,98057.47
2022-10-09T21:57:52.878Z,98058.22
2022-10-09T22:09:56.167Z,98139.06
2022-10-09T22:14:59.022Z,98143.19
2022-10-09T22:20:03.834Z,98150.50
2022-10-09T22:25:07.301Z,97929.25
2022-10-09T22:30:10.611Z,98130.41
2022-10-09T22:35:13.314Z,98040.06
2022-10-09T22:40:16.235Z,98120.53
2022-10-09T22:45:18.942Z,98107.28
2022-10-09T22:50:21.656Z,98062.19
2022-10-09T22:55:24.606Z,98083.44
2022-10-09T23:00:27.924Z,98069.66
2022-10-09T23:12:24.331Z,98074.81
2022-10-09T23:17:27.034Z,98041.69
2022-10-09T23:22:29.908Z,97963.84
2022-10-09T23:27:32.653Z,98043.59
2022-10-09T23:32:35.458Z,98092.88
2022-10-09T23:37:38.273Z,98081.25
2022-10-09T23:42:41.035Z,98055.13
2022-10-09T23:47:43.719Z,98096.44
2022-10-09T23:52:46.389Z,98096.88
2022-10-09T23:57:51.313Z,98102.72
